sensor_id;sensor_type;location;lat;lon;timestamp;temperature;humidity
439;DHT22;206;48.782;9.252;2023-07-22T00:01:09;18.40;46.10
439;DHT22;206;48.782;9.252;2023-07-22T00:03:35;18.50;45.70
439;DHT22;206;48.782;9.252;2023-07-22T00:08:31;18.40;45.70
439;DHT22;206;48.782;9.252;2023-07-22T00:10:56;18.50;45.80
439;DHT22;206;48.782;9.252;2023-07-22T00:13:22;18.40;45.80
439;DHT22;206;48.782;9.252;2023-07-22T00:15:47;18.40;46.10
439;DHT22;206;48.782;9.252;2023-07-22T00:18:13;18.40;46.30
439;DHT22;206;48.782;9.252;2023-07-22T00:20:39;18.20;45.60
439;DHT22;206;48.782;9.252;2023-07-22T00:23:04;18.10;44.40
439;DHT22;206;48.782;9.252;2023-07-22T00:25:30;18.10;43.90
439;DHT22;206;48.782;9.252;2023-07-22T00:27:55;18.00;44.30
439;DHT22;206;48.782;9.252;2023-07-22T00:30:22;17.90;44.90
439;DHT22;206;48.782;9.252;2023-07-22T00:32:48;17.80;45.70
439;DHT22;206;48.782;9.252;2023-07-22T00:35:13;17.70;46.40
439;DHT22;206;48.782;9.252;2023-07-22T00:37:39;17.80;47.30
439;DHT22;206;48.782;9.252;2023-07-22T00:40:05;17.80;47.50
439;DHT22;206;48.782;9.252;2023-07-22T00:42:32;17.90;47.60
439;DHT22;206;48.782;9.252;2023-07-22T00:44:57;17.80;47.90
439;DHT22;206;48.782;9.252;2023-07-22T00:47:23;17.80;49.00
439;DHT22;206;48.782;9.252;2023-07-22T00:49:49;17.80;49.10
439;DHT22;206;48.782;9.252;2023-07-22T00:52:16;17.80;49.20
439;DHT22;206;48.782;9.252;2023-07-22T00:54:43;17.70;49.60
439;DHT22;206;48.782;9.252;2023-07-22T00:57:09;17.60;50.50
439;DHT22;206;48.782;9.252;2023-07-22T00:59:35;17.50;51.70
439;DHT22;206;48.782;9.252;2023-07-22T01:02:01;17.40;52.60
439;DHT22;206;48.782;9.252;2023-07-22T01:04:26;17.40;52.80
439;DHT22;206;48.782;9.252;2023-07-22T01:06:52;17.50;52.80
439;DHT22;206;48.782;9.252;2023-07-22T01:09:19;17.60;52.20
439;DHT22;206;48.782;9.252;2023-07-22T01:11:44;17.60;52.10
439;DHT22;206;48.782;9.252;2023-07-22T01:14:10;17.50;51.40
439;DHT22;206;48.782;9.252;2023-07-22T01:16:36;17.50;51.60
439;DHT22;206;48.782;9.252;2023-07-22T01:19:02;17.50;51.50
439;DHT22;206;48.782;9.252;2023-07-22T01:21:31;17.60;51.20
439;DHT22;206;48.782;9.252;2023-07-22T01:23:57;17.50;51.60
439;DHT22;206;48.782;9.252;2023-07-22T01:26:23;17.50;51.30
439;DHT22;206;48.782;9.252;2023-07-22T01:28:50;17.60;51.10
439;DHT22;206;48.782;9.252;2023-07-22T01:31:16;17.60;51.50
439;DHT22;206;48.782;9.252;2023-07-22T01:33:41;17.50;51.60
439;DHT22;206;48.782;9.252;2023-07-22T01:36:07;17.40;52.30
439;DHT22;206;48.782;9.252;2023-07-22T01:38:33;17.40;52.50
439;DHT22;206;48.782;9.252;2023-07-22T01:40:59;17.40;52.80
439;DHT22;206;48.782;9.252;2023-07-22T01:43:24;17.30;52.80
439;DHT22;206;48.782;9.252;2023-07-22T01:45:50;17.30;52.90
439;DHT22;206;48.782;9.252;2023-07-22T01:48:15;17.30;53.10
439;DHT22;206;48.782;9.252;2023-07-22T01:50:41;17.30;53.00
439;DHT22;206;48.782;9.252;2023-07-22T01:53:07;17.40;52.90
439;DHT22;206;48.782;9.252;2023-07-22T01:55:33;17.40;53.30
439;DHT22;206;48.782;9.252;2023-07-22T01:57:58;17.40;52.40
439;DHT22;206;48.782;9.252;2023-07-22T02:00:24;17.40;52.20
439;DHT22;206;48.782;9.252;2023-07-22T02:02:50;17.40;52.30
439;DHT22;206;48.782;9.252;2023-07-22T02:05:16;17.40;52.20
439;DHT22;206;48.782;9.252;2023-07-22T02:07:41;17.30;52.80
439;DHT22;206;48.782;9.252;2023-07-22T02:10:07;17.30;53.10
439;DHT22;206;48.782;9.252;2023-07-22T02:12:35;17.20;53.70
439;DHT22;206;48.782;9.252;2023-07-22T02:15:00;17.30;54.60
439;DHT22;206;48.782;9.252;2023-07-22T02:17:27;17.20;53.90
439;DHT22;206;48.782;9.252;2023-07-22T02:19:53;17.20;54.20
439;DHT22;206;48.782;9.252;2023-07-22T02:22:18;17.20;54.50
439;DHT22;206;48.782;9.252;2023-07-22T02:24:44;17.20;54.50
439;DHT22;206;48.782;9.252;2023-07-22T02:27:10;17.10;54.20
439;DHT22;206;48.782;9.252;2023-07-22T02:29:35;17.10;54.50
439;DHT22;206;48.782;9.252;2023-07-22T02:32:01;17.10;54.60
439;DHT22;206;48.782;9.252;2023-07-22T02:34:27;17.10;54.90
439;DHT22;206;48.782;9.252;2023-07-22T02:36:53;17.00;54.70
439;DHT22;206;48.782;9.252;2023-07-22T02:39:18;17.00;55.10
439;DHT22;206;48.782;9.252;2023-07-22T02:41:44;17.10;54.90
439;DHT22;206;48.782;9.252;2023-07-22T02:44:10;17.00;55.10
439;DHT22;206;48.782;9.252;2023-07-22T02:46:35;17.00;55.00
439;DHT22;206;48.782;9.252;2023-07-22T02:49:01;17.00;55.30
439;DHT22;206;48.782;9.252;2023-07-22T02:51:26;16.90;55.10
439;DHT22;206;48.782;9.252;2023-07-22T02:53:52;16.80;55.40
439;DHT22;206;48.782;9.252;2023-07-22T02:56:17;16.80;55.60
439;DHT22;206;48.782;9.252;2023-07-22T02:58:43;16.70;56.20
439;DHT22;206;48.782;9.252;2023-07-22T03:01:09;16.70;56.40
439;DHT22;206;48.782;9.252;2023-07-22T03:03:35;16.70;56.70
439;DHT22;206;48.782;9.252;2023-07-22T03:06:02;16.60;56.90
439;DHT22;206;48.782;9.252;2023-07-22T03:08:28;16.60;57.20
439;DHT22;206;48.782;9.252;2023-07-22T03:10:54;16.60;57.10
439;DHT22;206;48.782;9.252;2023-07-22T03:13:20;16.60;57.10
439;DHT22;206;48.782;9.252;2023-07-22T03:15:45;16.60;57.20
439;DHT22;206;48.782;9.252;2023-07-22T03:18:11;16.70;56.80
439;DHT22;206;48.782;9.252;2023-07-22T03:20:37;16.70;56.30
439;DHT22;206;48.782;9.252;2023-07-22T03:23:04;16.70;56.10
439;DHT22;206;48.782;9.252;2023-07-22T03:25:30;16.70;55.60
439;DHT22;206;48.782;9.252;2023-07-22T03:27:55;16.70;55.50
439;DHT22;206;48.782;9.252;2023-07-22T03:30:22;16.70;54.50
439;DHT22;206;48.782;9.252;2023-07-22T03:32:48;16.80;53.70
439;DHT22;206;48.782;9.252;2023-07-22T03:35:19;16.80;53.90
439;DHT22;206;48.782;9.252;2023-07-22T03:37:44;16.80;54.20
439;DHT22;206;48.782;9.252;2023-07-22T03:40:10;16.80;54.10
439;DHT22;206;48.782;9.252;2023-07-22T03:42:39;16.90;54.20
439;DHT22;206;48.782;9.252;2023-07-22T03:45:05;16.90;54.50
439;DHT22;206;48.782;9.252;2023-07-22T03:47:31;16.90;54.50
439;DHT22;206;48.782;9.252;2023-07-22T03:49:56;16.80;54.10
439;DHT22;206;48.782;9.252;2023-07-22T03:52:22;16.80;53.80
439;DHT22;206;48.782;9.252;2023-07-22T03:54:48;16.80;53.70
439;DHT22;206;48.782;9.252;2023-07-22T03:57:13;16.80;53.60
439;DHT22;206;48.782;9.252;2023-07-22T03:59:39;16.90;53.20
439;DHT22;206;48.782;9.252;2023-07-22T04:02:05;16.80;53.00
439;DHT22;206;48.782;9.252;2023-07-22T04:04:31;16.80;53.50
439;DHT22;206;48.782;9.252;2023-07-22T04:06:56;16.80;53.20
439;DHT22;206;48.782;9.252;2023-07-22T04:09:22;16.80;53.30
439;DHT22;206;48.782;9.252;2023-07-22T04:11:47;16.80;53.30
439;DHT22;206;48.782;9.252;2023-07-22T04:14:13;16.80;52.70
439;DHT22;206;48.782;9.252;2023-07-22T04:16:39;16.90;52.20
439;DHT22;206;48.782;9.252;2023-07-22T04:19:05;16.90;51.00
439;DHT22;206;48.782;9.252;2023-07-22T04:21:31;16.90;50.90
439;DHT22;206;48.782;9.252;2023-07-22T04:23:57;16.90;51.00
439;DHT22;206;48.782;9.252;2023-07-22T04:26:22;16.90;51.00
439;DHT22;206;48.782;9.252;2023-07-22T04:28:48;16.90;51.50
439;DHT22;206;48.782;9.252;2023-07-22T04:31:13;16.90;51.70
439;DHT22;206;48.782;9.252;2023-07-22T04:33:39;16.90;51.60
439;DHT22;206;48.782;9.252;2023-07-22T04:36:07;16.90;51.60
439;DHT22;206;48.782;9.252;2023-07-22T04:38:32;16.90;51.70
439;DHT22;206;48.782;9.252;2023-07-22T04:40:58;16.80;51.50
439;DHT22;206;48.782;9.252;2023-07-22T04:43:25;16.90;51.20
439;DHT22;206;48.782;9.252;2023-07-22T04:45:52;16.90;50.50
439;DHT22;206;48.782;9.252;2023-07-22T04:48:20;16.90;51.00
439;DHT22;206;48.782;9.252;2023-07-22T04:50:47;17.00;50.80
439;DHT22;206;48.782;9.252;2023-07-22T04:53:13;16.90;51.20
439;DHT22;206;48.782;9.252;2023-07-22T04:55:39;17.00;51.20
439;DHT22;206;48.782;9.252;2023-07-22T04:58:05;17.10;50.80
439;DHT22;206;48.782;9.252;2023-07-22T05:00:31;17.10;50.60
439;DHT22;206;48.782;9.252;2023-07-22T05:02:57;17.10;50.50
439;DHT22;206;48.782;9.252;2023-07-22T05:05:22;17.20;50.60
439;DHT22;206;48.782;9.252;2023-07-22T05:07:48;17.20;50.10
439;DHT22;206;48.782;9.252;2023-07-22T05:10:15;17.30;50.20
439;DHT22;206;48.782;9.252;2023-07-22T05:12:42;17.40;49.50
439;DHT22;206;48.782;9.252;2023-07-22T05:15:09;17.40;48.60
439;DHT22;206;48.782;9.252;2023-07-22T05:17:35;17.50;48.40
439;DHT22;206;48.782;9.252;2023-07-22T05:20:01;17.50;47.90
439;DHT22;206;48.782;9.252;2023-07-22T05:22:26;17.60;47.60
439;DHT22;206;48.782;9.252;2023-07-22T05:24:52;17.60;47.10
439;DHT22;206;48.782;9.252;2023-07-22T05:27:18;17.70;45.60
439;DHT22;206;48.782;9.252;2023-07-22T05:29:44;17.80;44.50
439;DHT22;206;48.782;9.252;2023-07-22T05:32:10;17.80;44.10
439;DHT22;206;48.782;9.252;2023-07-22T05:34:36;17.80;44.10
439;DHT22;206;48.782;9.252;2023-07-22T05:37:02;17.90;43.60
439;DHT22;206;48.782;9.252;2023-07-22T05:39:27;17.90;43.20
439;DHT22;206;48.782;9.252;2023-07-22T05:41:53;17.90;43.40
439;DHT22;206;48.782;9.252;2023-07-22T05:44:18;17.90;43.30
439;DHT22;206;48.782;9.252;2023-07-22T05:46:44;17.90;43.10
439;DHT22;206;48.782;9.252;2023-07-22T05:49:10;17.90;42.90
439;DHT22;206;48.782;9.252;2023-07-22T05:51:38;18.00;42.60
439;DHT22;206;48.782;9.252;2023-07-22T05:54:04;18.00;42.40
439;DHT22;206;48.782;9.252;2023-07-22T05:56:30;18.00;42.50
439;DHT22;206;48.782;9.252;2023-07-22T05:58:56;18.10;41.70
439;DHT22;206;48.782;9.252;2023-07-22T06:01:22;18.00;40.90
439;DHT22;206;48.782;9.252;2023-07-22T06:03:48;18.00;41.00
439;DHT22;206;48.782;9.252;2023-07-22T06:06:13;18.10;41.00
439;DHT22;206;48.782;9.252;2023-07-22T06:08:39;18.10;41.00
439;DHT22;206;48.782;9.252;2023-07-22T06:11:04;18.20;41.10
439;DHT22;206;48.782;9.252;2023-07-22T06:13:30;18.20;41.10
439;DHT22;206;48.782;9.252;2023-07-22T06:15:56;18.20;40.10
439;DHT22;206;48.782;9.252;2023-07-22T06:18:22;18.20;40.00
439;DHT22;206;48.782;9.252;2023-07-22T06:20:47;18.30;40.00
439;DHT22;206;48.782;9.252;2023-07-22T06:23:13;18.30;39.60
439;DHT22;206;48.782;9.252;2023-07-22T06:25:39;18.50;39.10
439;DHT22;206;48.782;9.252;2023-07-22T06:28:05;18.60;38.90
439;DHT22;206;48.782;9.252;2023-07-22T06:30:30;18.60;38.80
439;DHT22;206;48.782;9.252;2023-07-22T06:32:56;18.80;38.00
439;DHT22;206;48.782;9.252;2023-07-22T06:35:21;18.90;37.50
439;DHT22;206;48.782;9.252;2023-07-22T06:37:47;19.00;36.70
439;DHT22;206;48.782;9.252;2023-07-22T06:40:13;19.20;36.90
439;DHT22;206;48.782;9.252;2023-07-22T06:42:39;19.30;36.50
439;DHT22;206;48.782;9.252;2023-07-22T06:45:04;19.40;35.80
439;DHT22;206;48.782;9.252;2023-07-22T06:47:30;19.60;35.10
439;DHT22;206;48.782;9.252;2023-07-22T06:49:56;19.70;34.80
439;DHT22;206;48.782;9.252;2023-07-22T06:52:22;20.00;33.80
439;DHT22;206;48.782;9.252;2023-07-22T06:54:48;20.20;32.60
439;DHT22;206;48.782;9.252;2023-07-22T06:57:13;20.50;32.90
439;DHT22;206;48.782;9.252;2023-07-22T06:59:39;20.80;31.40
439;DHT22;206;48.782;9.252;2023-07-22T07:02:05;21.00;30.20
439;DHT22;206;48.782;9.252;2023-07-22T07:04:30;21.30;29.70
439;DHT22;206;48.782;9.252;2023-07-22T07:06:56;21.50;29.40
439;DHT22;206;48.782;9.252;2023-07-22T07:09:22;21.80;28.70
439;DHT22;206;48.782;9.252;2023-07-22T07:11:48;22.00;28.20
439;DHT22;206;48.782;9.252;2023-07-22T07:14:13;22.20;27.80
439;DHT22;206;48.782;9.252;2023-07-22T07:16:39;22.40;27.50
439;DHT22;206;48.782;9.252;2023-07-22T07:19:05;22.60;26.70
439;DHT22;206;48.782;9.252;2023-07-22T07:21:30;22.70;26.50
439;DHT22;206;48.782;9.252;2023-07-22T07:23:56;22.80;26.40
439;DHT22;206;48.782;9.252;2023-07-22T07:26:22;22.90;25.80
439;DHT22;206;48.782;9.252;2023-07-22T07:28:48;23.10;25.90
439;DHT22;206;48.782;9.252;2023-07-22T07:31:16;23.30;25.50
439;DHT22;206;48.782;9.252;2023-07-22T07:33:41;23.60;24.80
439;DHT22;206;48.782;9.252;2023-07-22T07:36:07;23.80;24.30
439;DHT22;206;48.782;9.252;2023-07-22T07:38:33;24.00;24.10
439;DHT22;206;48.782;9.252;2023-07-22T07:41:01;24.20;23.50
439;DHT22;206;48.782;9.252;2023-07-22T07:43:27;24.30;23.40
439;DHT22;206;48.782;9.252;2023-07-22T07:46:15;24.40;22.90
439;DHT22;206;48.782;9.252;2023-07-22T07:48:46;24.70;22.40
439;DHT22;206;48.782;9.252;2023-07-22T07:51:13;24.90;22.20
439;DHT22;206;48.782;9.252;2023-07-22T07:53:40;25.00;21.90
439;DHT22;206;48.782;9.252;2023-07-22T07:56:06;25.10;21.60
439;DHT22;206;48.782;9.252;2023-07-22T07:58:32;25.20;21.20
439;DHT22;206;48.782;9.252;2023-07-22T08:00:58;25.40;20.60
439;DHT22;206;48.782;9.252;2023-07-22T08:03:23;25.50;20.10
439;DHT22;206;48.782;9.252;2023-07-22T08:05:49;25.60;20.00
439;DHT22;206;48.782;9.252;2023-07-22T08:08:15;25.70;19.20
439;DHT22;206;48.782;9.252;2023-07-22T08:10:40;25.80;19.80
439;DHT22;206;48.782;9.252;2023-07-22T08:13:06;25.90;18.70
439;DHT22;206;48.782;9.252;2023-07-22T08:15:31;26.10;18.00
439;DHT22;206;48.782;9.252;2023-07-22T08:17:57;26.20;16.80
439;DHT22;206;48.782;9.252;2023-07-22T08:20:22;26.30;16.30
439;DHT22;206;48.782;9.252;2023-07-22T08:22:48;26.30;15.40
439;DHT22;206;48.782;9.252;2023-07-22T08:25:14;26.40;15.30
439;DHT22;206;48.782;9.252;2023-07-22T08:27:39;26.40;14.40
439;DHT22;206;48.782;9.252;2023-07-22T08:30:05;26.40;15.00
439;DHT22;206;48.782;9.252;2023-07-22T08:32:31;26.50;14.70
439;DHT22;206;48.782;9.252;2023-07-22T08:34:56;26.60;14.60
439;DHT22;206;48.782;9.252;2023-07-22T08:37:22;26.70;13.70
439;DHT22;206;48.782;9.252;2023-07-22T08:39:47;26.90;11.10
439;DHT22;206;48.782;9.252;2023-07-22T08:42:15;26.90;11.10
439;DHT22;206;48.782;9.252;2023-07-22T08:44:43;26.90;11.10
439;DHT22;206;48.782;9.252;2023-07-22T08:47:12;27.00;10.90
439;DHT22;206;48.782;9.252;2023-07-22T08:49:42;27.10;10.60
439;DHT22;206;48.782;9.252;2023-07-22T08:52:10;27.30;10.60
439;DHT22;206;48.782;9.252;2023-07-22T08:54:36;27.50;10.30
439;DHT22;206;48.782;9.252;2023-07-22T08:57:03;27.50;9.50
439;DHT22;206;48.782;9.252;2023-07-22T08:59:28;27.50;9.50
439;DHT22;206;48.782;9.252;2023-07-22T09:01:54;27.60;9.80
439;DHT22;206;48.782;9.252;2023-07-22T09:04:20;27.60;9.30
439;DHT22;206;48.782;9.252;2023-07-22T09:06:46;27.80;9.50
439;DHT22;206;48.782;9.252;2023-07-22T09:09:11;27.90;8.20
439;DHT22;206;48.782;9.252;2023-07-22T09:11:37;27.80;7.60
439;DHT22;206;48.782;9.252;2023-07-22T09:14:03;27.80;9.10
439;DHT22;206;48.782;9.252;2023-07-22T09:16:32;27.60;9.90
439;DHT22;206;48.782;9.252;2023-07-22T09:18:58;27.70;9.60
439;DHT22;206;48.782;9.252;2023-07-22T09:21:24;27.50;8.40
439;DHT22;206;48.782;9.252;2023-07-22T09:23:49;27.50;8.40
439;DHT22;206;48.782;9.252;2023-07-22T09:26:16;27.30;9.40
439;DHT22;206;48.782;9.252;2023-07-22T09:31:13;26.80;8.20
439;DHT22;206;48.782;9.252;2023-07-22T09:33:39;26.80;8.10
439;DHT22;206;48.782;9.252;2023-07-22T09:36:05;26.70;8.50
439;DHT22;206;48.782;9.252;2023-07-22T09:38:30;26.60;10.30
439;DHT22;206;48.782;9.252;2023-07-22T09:40:56;26.50;9.90
439;DHT22;206;48.782;9.252;2023-07-22T09:43:23;26.40;10.90
439;DHT22;206;48.782;9.252;2023-07-22T09:45:49;26.10;11.10
439;DHT22;206;48.782;9.252;2023-07-22T09:48:14;26.00;11.30
439;DHT22;206;48.782;9.252;2023-07-22T09:50:40;26.00;12.10
439;DHT22;206;48.782;9.252;2023-07-22T09:53:07;26.00;12.50
439;DHT22;206;48.782;9.252;2023-07-22T09:55:33;26.00;10.70
439;DHT22;206;48.782;9.252;2023-07-22T09:58:04;26.00;11.20
439;DHT22;206;48.782;9.252;2023-07-22T10:00:35;26.00;10.70
439;DHT22;206;48.782;9.252;2023-07-22T10:03:03;26.00;10.70
439;DHT22;206;48.782;9.252;2023-07-22T10:05:34;26.10;10.20
439;DHT22;206;48.782;9.252;2023-07-22T10:08:00;26.20;9.00
439;DHT22;206;48.782;9.252;2023-07-22T10:10:34;26.20;9.20
439;DHT22;206;48.782;9.252;2023-07-22T10:13:00;26.30;8.90
439;DHT22;206;48.782;9.252;2023-07-22T10:15:30;26.30;8.60
439;DHT22;206;48.782;9.252;2023-07-22T10:17:57;26.50;8.40
439;DHT22;206;48.782;9.252;2023-07-22T10:20:24;26.60;8.20
439;DHT22;206;48.782;9.252;2023-07-22T10:22:50;26.70;7.90
439;DHT22;206;48.782;9.252;2023-07-22T10:25:18;27.00;7.30
439;DHT22;206;48.782;9.252;2023-07-22T10:27:44;27.10;6.80
439;DHT22;206;48.782;9.252;2023-07-22T10:30:14;27.30;6.90
439;DHT22;206;48.782;9.252;2023-07-22T10:32:45;27.30;6.50
439;DHT22;206;48.782;9.252;2023-07-22T10:35:16;27.30;6.40
439;DHT22;206;48.782;9.252;2023-07-22T10:37:45;27.30;6.20
439;DHT22;206;48.782;9.252;2023-07-22T10:40:47;27.30;5.90
439;DHT22;206;48.782;9.252;2023-07-22T10:43:15;27.30;6.20
439;DHT22;206;48.782;9.252;2023-07-22T10:45:50;27.30;6.00
439;DHT22;206;48.782;9.252;2023-07-22T10:48:17;27.30;6.00
439;DHT22;206;48.782;9.252;2023-07-22T10:53:37;27.30;6.10
439;DHT22;206;48.782;9.252;2023-07-22T10:56:21;27.30;5.80
439;DHT22;206;48.782;9.252;2023-07-22T11:12:26;27.50;5.80
439;DHT22;206;48.782;9.252;2023-07-22T11:15:02;27.50;5.60
439;DHT22;206;48.782;9.252;2023-07-22T11:17:29;27.40;5.90
439;DHT22;206;48.782;9.252;2023-07-22T11:19:56;27.30;6.00
439;DHT22;206;48.782;9.252;2023-07-22T11:22:22;27.40;5.70
439;DHT22;206;48.782;9.252;2023-07-22T11:24:48;27.40;5.60
439;DHT22;206;48.782;9.252;2023-07-22T11:27:13;27.50;5.40
439;DHT22;206;48.782;9.252;2023-07-22T11:29:40;27.50;5.60
439;DHT22;206;48.782;9.252;2023-07-22T11:32:06;27.40;5.50
439;DHT22;206;48.782;9.252;2023-07-22T11:34:33;27.30;5.90
439;DHT22;206;48.782;9.252;2023-07-22T11:36:59;27.30;6.00
439;DHT22;206;48.782;9.252;2023-07-22T11:39:26;27.30;6.40
439;DHT22;206;48.782;9.252;2023-07-22T11:41:52;27.30;6.50
439;DHT22;206;48.782;9.252;2023-07-22T11:44:20;27.30;6.70
439;DHT22;206;48.782;9.252;2023-07-22T11:49:13;27.40;6.60
439;DHT22;206;48.782;9.252;2023-07-22T11:51:46;27.50;6.40
439;DHT22;206;48.782;9.252;2023-07-22T11:54:12;27.40;7.00
439;DHT22;206;48.782;9.252;2023-07-22T11:56:39;27.30;6.60
439;DHT22;206;48.782;9.252;2023-07-22T11:59:05;27.30;6.50
439;DHT22;206;48.782;9.252;2023-07-22T12:01:34;27.30;6.90
439;DHT22;206;48.782;9.252;2023-07-22T12:04:00;27.30;6.80
439;DHT22;206;48.782;9.252;2023-07-22T12:06:26;27.20;6.90
439;DHT22;206;48.782;9.252;2023-07-22T12:08:52;27.10;6.90
439;DHT22;206;48.782;9.252;2023-07-22T12:11:22;27.10;7.00
439;DHT22;206;48.782;9.252;2023-07-22T12:14:12;27.20;6.90
439;DHT22;206;48.782;9.252;2023-07-22T12:16:42;27.10;7.20
439;DHT22;206;48.782;9.252;2023-07-22T12:19:09;27.10;7.00
439;DHT22;206;48.782;9.252;2023-07-22T12:21:35;27.10;6.70
439;DHT22;206;48.782;9.252;2023-07-22T12:24:01;27.10;6.80
439;DHT22;206;48.782;9.252;2023-07-22T12:26:27;27.10;7.20
439;DHT22;206;48.782;9.252;2023-07-22T12:28:53;27.10;7.50
439;DHT22;206;48.782;9.252;2023-07-22T12:31:18;27.10;7.50
439;DHT22;206;48.782;9.252;2023-07-22T12:33:44;27.20;7.60
439;DHT22;206;48.782;9.252;2023-07-22T12:36:10;27.30;7.40
439;DHT22;206;48.782;9.252;2023-07-22T12:38:36;27.40;6.80
439;DHT22;206;48.782;9.252;2023-07-22T12:41:02;27.50;6.50
439;DHT22;206;48.782;9.252;2023-07-22T12:43:28;27.70;6.30
439;DHT22;206;48.782;9.252;2023-07-22T12:45:54;27.90;5.90
439;DHT22;206;48.782;9.252;2023-07-22T12:48:20;28.00;6.00
439;DHT22;206;48.782;9.252;2023-07-22T12:50:45;28.00;5.70
439;DHT22;206;48.782;9.252;2023-07-22T12:53:13;28.10;5.80
439;DHT22;206;48.782;9.252;2023-07-22T12:55:39;28.10;5.60
439;DHT22;206;48.782;9.252;2023-07-22T12:58:05;28.20;5.20
439;DHT22;206;48.782;9.252;2023-07-22T13:00:30;28.30;5.20
439;DHT22;206;48.782;9.252;2023-07-22T13:02:56;28.30;4.00
439;DHT22;206;48.782;9.252;2023-07-22T13:05:22;28.20;4.00
439;DHT22;206;48.782;9.252;2023-07-22T13:07:48;28.20;3.90
439;DHT22;206;48.782;9.252;2023-07-22T13:10:15;28.20;4.30
439;DHT22;206;48.782;9.252;2023-07-22T13:12:43;28.20;4.10
439;DHT22;206;48.782;9.252;2023-07-22T13:15:09;28.20;4.30
439;DHT22;206;48.782;9.252;2023-07-22T13:17:35;28.30;3.90
439;DHT22;206;48.782;9.252;2023-07-22T13:20:00;28.30;3.90
439;DHT22;206;48.782;9.252;2023-07-22T13:22:26;28.30;4.20
439;DHT22;206;48.782;9.252;2023-07-22T13:24:52;28.20;4.30
439;DHT22;206;48.782;9.252;2023-07-22T13:27:18;28.30;4.50
439;DHT22;206;48.782;9.252;2023-07-22T13:29:44;28.30;4.20
439;DHT22;206;48.782;9.252;2023-07-22T13:32:10;28.30;4.20
439;DHT22;206;48.782;9.252;2023-07-22T13:34:36;28.40;4.00
439;DHT22;206;48.782;9.252;2023-07-22T13:37:01;28.40;3.90
439;DHT22;206;48.782;9.252;2023-07-22T13:39:28;28.40;3.10
439;DHT22;206;48.782;9.252;2023-07-22T13:41:53;28.50;2.90
439;DHT22;206;48.782;9.252;2023-07-22T13:44:19;28.50;2.90
439;DHT22;206;48.782;9.252;2023-07-22T13:46:45;28.40;2.90
439;DHT22;206;48.782;9.252;2023-07-22T13:49:10;28.50;2.90
439;DHT22;206;48.782;9.252;2023-07-22T13:51:36;28.40;3.40
439;DHT22;206;48.782;9.252;2023-07-22T13:54:02;28.40;2.90
439;DHT22;206;48.782;9.252;2023-07-22T13:56:28;28.50;3.50
439;DHT22;206;48.782;9.252;2023-07-22T13:58:54;28.50;3.40
439;DHT22;206;48.782;9.252;2023-07-22T14:01:20;28.60;3.00
439;DHT22;206;48.782;9.252;2023-07-22T14:03:45;28.50;3.30
439;DHT22;206;48.782;9.252;2023-07-22T14:06:11;28.60;3.00
439;DHT22;206;48.782;9.252;2023-07-22T14:08:37;28.60;3.00
439;DHT22;206;48.782;9.252;2023-07-22T14:11:02;28.50;3.10
439;DHT22;206;48.782;9.252;2023-07-22T14:13:28;28.50;2.90
439;DHT22;206;48.782;9.252;2023-07-22T14:15:53;28.60;3.00
439;DHT22;206;48.782;9.252;2023-07-22T14:18:19;28.60;3.20
439;DHT22;206;48.782;9.252;2023-07-22T14:20:44;28.60;3.00
439;DHT22;206;48.782;9.252;2023-07-22T14:23:14;28.50;2.90
439;DHT22;206;48.782;9.252;2023-07-22T14:25:39;28.50;3.10
439;DHT22;206;48.782;9.252;2023-07-22T14:28:05;28.50;3.60
439;DHT22;206;48.782;9.252;2023-07-22T14:30:31;28.60;3.80
439;DHT22;206;48.782;9.252;2023-07-22T14:32:57;28.70;3.80
439;DHT22;206;48.782;9.252;2023-07-22T14:35:23;28.80;3.60
439;DHT22;206;48.782;9.252;2023-07-22T14:37:49;28.90;3.20
439;DHT22;206;48.782;9.252;2023-07-22T14:40:14;28.90;3.20
439;DHT22;206;48.782;9.252;2023-07-22T14:42:40;29.00;3.20
439;DHT22;206;48.782;9.252;2023-07-22T14:45:06;29.00;3.30
439;DHT22;206;48.782;9.252;2023-07-22T14:47:32;29.00;3.20
439;DHT22;206;48.782;9.252;2023-07-22T14:49:58;29.00;3.20
439;DHT22;206;48.782;9.252;2023-07-22T14:52:23;29.00;3.20
439;DHT22;206;48.782;9.252;2023-07-22T14:54:49;29.00;3.30
439;DHT22;206;48.782;9.252;2023-07-22T14:57:16;29.00;3.20
439;DHT22;206;48.782;9.252;2023-07-22T14:59:42;29.00;3.20
439;DHT22;206;48.782;9.252;2023-07-22T15:02:08;28.90;3.20
439;DHT22;206;48.782;9.252;2023-07-22T15:04:33;28.80;3.10
439;DHT22;206;48.782;9.252;2023-07-22T15:06:59;28.80;3.10
439;DHT22;206;48.782;9.252;2023-07-22T15:09:24;28.80;3.10
439;DHT22;206;48.782;9.252;2023-07-22T15:11:50;28.80;3.10
439;DHT22;206;48.782;9.252;2023-07-22T15:14:15;28.80;2.80
439;DHT22;206;48.782;9.252;2023-07-22T15:16:41;28.80;3.10
439;DHT22;206;48.782;9.252;2023-07-22T15:19:07;28.70;3.10
439;DHT22;206;48.782;9.252;2023-07-22T15:21:33;28.70;3.10
439;DHT22;206;48.782;9.252;2023-07-22T15:23:59;28.70;3.10
439;DHT22;206;48.782;9.252;2023-07-22T15:26:24;28.60;3.00
439;DHT22;206;48.782;9.252;2023-07-22T15:28:50;28.60;3.00
439;DHT22;206;48.782;9.252;2023-07-22T15:31:19;28.60;3.00
439;DHT22;206;48.782;9.252;2023-07-22T15:33:45;28.50;2.90
439;DHT22;206;48.782;9.252;2023-07-22T15:36:11;28.50;2.90
439;DHT22;206;48.782;9.252;2023-07-22T15:38:36;28.50;3.00
439;DHT22;206;48.782;9.252;2023-07-22T15:41:02;28.50;2.90
439;DHT22;206;48.782;9.252;2023-07-22T15:43:28;28.50;2.90
439;DHT22;206;48.782;9.252;2023-07-22T15:45:54;28.40;2.90
439;DHT22;206;48.782;9.252;2023-07-22T15:48:20;28.40;2.90
439;DHT22;206;48.782;9.252;2023-07-22T15:50:46;28.50;3.00
439;DHT22;206;48.782;9.252;2023-07-22T15:53:14;28.50;3.20
439;DHT22;206;48.782;9.252;2023-07-22T15:55:40;28.50;2.90
439;DHT22;206;48.782;9.252;2023-07-22T15:58:05;28.50;2.90
439;DHT22;206;48.782;9.252;2023-07-22T16:00:31;28.40;2.90
439;DHT22;206;48.782;9.252;2023-07-22T16:02:56;28.50;3.00
439;DHT22;206;48.782;9.252;2023-07-22T16:05:22;28.60;3.00
439;DHT22;206;48.782;9.252;2023-07-22T16:07:48;28.60;3.00
439;DHT22;206;48.782;9.252;2023-07-22T16:10:13;28.60;3.30
439;DHT22;206;48.782;9.252;2023-07-22T16:12:39;28.60;3.50
439;DHT22;206;48.782;9.252;2023-07-22T16:15:05;28.60;3.70
439;DHT22;206;48.782;9.252;2023-07-22T16:17:32;28.50;3.60
439;DHT22;206;48.782;9.252;2023-07-22T16:19:58;28.60;3.90
439;DHT22;206;48.782;9.252;2023-07-22T16:22:23;28.50;4.10
439;DHT22;206;48.782;9.252;2023-07-22T16:24:49;28.20;4.30
439;DHT22;206;48.782;9.252;2023-07-22T16:27:15;27.90;5.00
439;DHT22;206;48.782;9.252;2023-07-22T16:29:40;27.90;5.30
439;DHT22;206;48.782;9.252;2023-07-22T16:32:07;27.80;5.30
439;DHT22;206;48.782;9.252;2023-07-22T16:34:33;27.70;5.30
439;DHT22;206;48.782;9.252;2023-07-22T16:36:59;27.80;5.40
439;DHT22;206;48.782;9.252;2023-07-22T16:39:25;27.70;5.50
439;DHT22;206;48.782;9.252;2023-07-22T16:41:50;27.70;5.60
439;DHT22;206;48.782;9.252;2023-07-22T16:44:16;27.60;5.60
439;DHT22;206;48.782;9.252;2023-07-22T16:46:43;27.50;5.90
439;DHT22;206;48.782;9.252;2023-07-22T16:49:08;27.50;6.00
439;DHT22;206;48.782;9.252;2023-07-22T16:51:34;27.50;5.90
439;DHT22;206;48.782;9.252;2023-07-22T16:54:00;27.50;6.00
439;DHT22;206;48.782;9.252;2023-07-22T16:56:25;27.50;6.00
439;DHT22;206;48.782;9.252;2023-07-22T16:58:51;27.60;5.70